Time;durP1;ratioP1;P1;durP2;ratioP2;P2;SDS_P1;SDS_P2;PMS_P1;PMS_P2;Temp;Humidity;BMP_temperature;BMP_pressure;BME280_temperature;BME280_humidity;BME280_pressure;Samples;Min_cycle;Max_cycle;Signal;HPM_P1;HPM_P2
2022/10/27 00:01:56;;;;;;;11.93;4.75;;;13.30;99.90;;;;;;4974676;28;20507;-82
2022/10/27 00:04:22;;;;;;;12.13;4.72;;;13.30;99.90;;;;;;4973164;28;20184;-81
2022/10/27 00:06:48;;;;;;;12.45;4.57;;;13.30;99.90;;;;;;4988804;28;20724;-82
2022/10/27 00:09:13;;;;;;;12.10;4.50;;;13.30;99.90;;;;;;4986652;28;20487;-82
2022/10/27 00:11:39;;;;;;;13.48;4.90;;;13.30;99.90;;;;;;4970560;28;20038;-82
2022/10/27 00:14:05;;;;;;;17.33;4.65;;;13.30;99.90;;;;;;4989180;28;20405;-82
2022/10/27 00:16:31;;;;;;;14.15;4.53;;;13.30;99.90;;;;;;4974606;28;20054;-82
2022/10/27 00:18:56;;;;;;;11.93;4.70;;;13.30;99.90;;;;;;4973178;28;20052;-82
2022/10/27 00:21:23;;;;;;;13.25;4.32;;;13.30;99.90;;;;;;4973171;28;20053;-82
2022/10/27 00:23:49;;;;;;;13.68;4.35;;;13.30;99.90;;;;;;5004677;28;20054;-82
2022/10/27 00:26:17;;;;;;;17.70;4.68;;;13.30;99.90;;;;;;4990940;28;20030;-82
2022/10/27 00:28:43;;;;;;;14.10;4.28;;;13.30;99.90;;;;;;4999693;28;20045;-82
2022/10/27 00:31:18;;;;;;;15.55;4.65;;;13.30;99.90;;;;;;4983481;28;20033;-82
2022/10/27 00:33:46;;;;;;;15.75;4.53;;;13.30;99.90;;;;;;4978473;28;20050;-82
2022/10/27 00:36:14;;;;;;;13.07;4.60;;;13.30;99.90;;;;;;5002869;28;20058;-82
2022/10/27 00:38:40;;;;;;;12.68;4.43;;;13.20;99.90;;;;;;4988747;28;20513;-82
2022/10/27 00:41:18;;;;;;;14.48;4.82;;;13.20;99.90;;;;;;5005768;28;20038;-82
2022/10/27 00:43:43;;;;;;;12.23;4.28;;;13.20;99.90;;;;;;4982509;28;20514;-82
2022/10/27 00:46:20;;;;;;;14.88;4.70;;;13.20;99.90;;;;;;4968718;28;20121;-82
2022/10/27 00:48:50;;;;;;;16.95;4.82;;;13.20;99.90;;;;;;5005415;28;20053;-82
2022/10/27 00:51:18;;;;;;;14.18;4.65;;;13.20;99.90;;;;;;4989055;28;20038;-82
2022/10/27 00:53:45;;;;;;;12.90;4.90;;;13.20;99.90;;;;;;5005242;28;20038;-82
2022/10/27 00:56:11;;;;;;;14.15;4.68;;;13.20;99.90;;;;;;4990464;28;20041;-82
2022/10/27 00:58:38;;;;;;;15.68;5.22;;;13.20;99.90;;;;;;5002657;28;20419;-82
2022/10/27 01:01:04;;;;;;;12.88;4.90;;;13.20;99.90;;;;;;5004190;28;20398;-82
2022/10/27 01:03:31;;;;;;;16.92;5.82;;;13.20;99.90;;;;;;4989759;28;20064;-82
2022/10/27 01:05:58;;;;;;;18.00;5.57;;;13.20;99.90;;;;;;4970394;28;20045;-82
2022/10/27 01:08:25;;;;;;;15.43;5.60;;;13.20;99.90;;;;;;5001245;28;20081;-82
2022/10/27 01:10:52;;;;;;;12.98;5.70;;;13.20;99.90;;;;;;5004202;28;20553;-82
2022/10/27 01:13:18;;;;;;;15.90;5.88;;;13.20;99.90;;;;;;4982734;28;20122;-82
2022/10/27 01:15:52;;;;;;;16.13;5.75;;;13.20;99.90;;;;;;4989411;28;20049;-83
2022/10/27 01:18:42;;;;;;;13.00;5.85;;;13.20;99.90;;;;;;4989063;28;20044;-82
2022/10/27 01:21:38;;;;;;;15.50;5.95;;;13.20;99.90;;;;;;4984976;28;20522;-82
2022/10/27 01:24:23;;;;;;;13.70;5.30;;;13.20;99.90;;;;;;4987903;28;20042;-83
2022/10/27 01:26:56;;;;;;;17.35;5.97;;;13.20;99.90;;;;;;5002080;28;20040;-82
2022/10/27 01:29:56;;;;;;;16.98;6.07;;;13.10;99.90;;;;;;4985838;28;20042;-82
2022/10/27 01:32:32;;;;;;;11.68;5.82;;;13.20;99.90;;;;;;5001641;28;20120;-82
2022/10/27 01:35:23;;;;;;;14.85;6.35;;;13.20;99.90;;;;;;4985970;28;20427;-82
2022/10/27 01:37:59;;;;;;;16.15;6.03;;;13.20;99.90;;;;;;4987198;28;20042;-82
2022/10/27 01:40:42;;;;;;;16.92;6.20;;;13.20;99.90;;;;;;5000373;28;20048;-82
2022/10/27 01:43:13;;;;;;;16.85;6.38;;;13.20;99.90;;;;;;4994410;28;20561;-82
2022/10/27 01:45:40;;;;;;;15.07;6.22;;;13.20;99.90;;;;;;4991496;28;20119;-82
2022/10/27 01:48:08;;;;;;;14.85;5.57;;;13.20;99.90;;;;;;4998984;28;20057;-82
2022/10/27 01:50:36;;;;;;;14.93;6.25;;;13.20;99.90;;;;;;4962240;28;20121;-82
2022/10/27 01:53:02;;;;;;;13.70;6.35;;;13.10;99.90;;;;;;4987906;28;20167;-82
2022/10/27 01:55:47;;;;;;;17.63;6.05;;;13.20;99.90;;;;;;4975584;28;20130;-82
2022/10/27 01:58:44;;;;;;;14.25;6.22;;;13.20;99.90;;;;;;5009295;28;20049;-82
2022/10/27 02:01:57;;;;;;;15.13;6.57;;;13.20;99.90;;;;;;4988629;28;20120;-81
2022/10/27 02:05:00;;;;;;;17.42;6.63;;;13.20;99.90;;;;;;4990964;28;20380;-82
2022/10/27 02:07:46;;;;;;;16.67;6.93;;;13.20;99.90;;;;;;4992085;28;20057;-83
2022/10/27 02:10:17;;;;;;;14.50;7.10;;;13.20;99.90;;;;;;5010689;28;20045;-82
2022/10/27 02:12:44;;;;;;;18.30;7.10;;;13.10;99.90;;;;;;4989219;28;20108;-82
2022/10/27 02:15:22;;;;;;;15.00;6.80;;;13.30;99.90;;;;;;4993166;28;20386;-82
2022/10/27 02:17:49;;;;;;;15.07;7.03;;;13.20;99.90;;;;;;5008261;28;20073;-82
2022/10/27 02:20:26;;;;;;;13.25;6.75;;;13.20;99.90;;;;;;4993662;28;20501;-82
2022/10/27 02:22:53;;;;;;;17.52;7.43;;;13.20;99.90;;;;;;4989736;28;20402;-82
2022/10/27 02:25:28;;;;;;;17.40;7.10;;;13.20;99.90;;;;;;4982705;28;20039;-82
2022/10/27 02:28:00;;;;;;;17.50;6.68;;;13.20;99.90;;;;;;4992664;28;20117;-82
2022/10/27 02:30:26;;;;;;;16.30;7.35;;;13.20;99.90;;;;;;4988824;28;20037;-82
2022/10/27 02:32:52;;;;;;;15.73;6.60;;;13.10;99.90;;;;;;4974963;28;20121;-82
2022/10/27 02:35:18;;;;;;;16.25;7.45;;;13.10;99.90;;;;;;4965337;28;20344;-82
2022/10/27 02:37:45;;;;;;;16.25;7.35;;;13.10;99.90;;;;;;5008415;28;20081;-82
2022/10/27 02:40:11;;;;;;;17.10;7.57;;;13.10;99.90;;;;;;5009179;28;20046;-82
2022/10/27 02:42:37;;;;;;;16.48;7.05;;;13.20;99.90;;;;;;4992778;28;20045;-82
2022/10/27 02:45:03;;;;;;;14.43;7.47;;;13.30;99.90;;;;;;4977997;28;20042;-82
2022/10/27 02:47:29;;;;;;;16.75;8.18;;;13.20;99.90;;;;;;4989236;28;20039;-82
2022/10/27 02:49:54;;;;;;;17.83;8.15;;;13.20;99.90;;;;;;4971955;28;20044;-82
2022/10/27 02:52:20;;;;;;;17.45;7.78;;;13.20;99.90;;;;;;4994864;28;20128;-82
2022/10/27 02:54:47;;;;;;;16.75;7.95;;;13.20;99.90;;;;;;4989716;28;20430;-82
2022/10/27 02:57:19;;;;;;;16.27;7.85;;;13.20;99.90;;;;;;4986599;28;20042;-82
2022/10/27 02:59:45;;;;;;;17.23;7.68;;;13.20;99.90;;;;;;4991956;28;20510;-82
2022/10/27 03:02:10;;;;;;;15.50;7.82;;;13.20;99.90;;;;;;4991231;28;20046;-82
2022/10/27 03:04:36;;;;;;;15.95;7.90;;;13.20;99.90;;;;;;4975320;28;20043;-82
2022/10/27 03:07:02;;;;;;;18.42;7.70;;;13.20;99.90;;;;;;4989689;28;20084;-82
2022/10/27 03:09:28;;;;;;;17.77;8.10;;;13.10;99.90;;;;;;4961153;28;20045;-82
2022/10/27 03:11:54;;;;;;;17.85;8.60;;;13.10;99.90;;;;;;4974774;28;20387;-82
2022/10/27 03:14:19;;;;;;;17.73;8.35;;;13.10;99.90;;;;;;4992644;28;20042;-82
2022/10/27 03:16:45;;;;;;;16.23;7.47;;;13.10;99.90;;;;;;4972901;28;20045;-83
2022/10/27 03:19:11;;;;;;;15.40;7.97;;;13.10;99.90;;;;;;4971129;28;20073;-82
2022/10/27 03:21:36;;;;;;;17.42;7.80;;;13.20;99.90;;;;;;4981041;28;20595;-83
2022/10/27 03:24:02;;;;;;;13.98;7.53;;;13.00;99.90;;;;;;4991791;28;20034;-83
2022/10/27 03:26:28;;;;;;;16.90;8.10;;;13.00;99.90;;;;;;4969551;28;20506;-84
2022/10/27 03:28:54;;;;;;;16.83;8.25;;;13.00;99.90;;;;;;4988368;28;20434;-82
2022/10/27 03:31:19;;;;;;;17.58;8.20;;;13.00;99.90;;;;;;4990520;28;20053;-82
2022/10/27 03:33:45;;;;;;;15.05;7.93;;;13.00;99.90;;;;;;4989143;28;20057;-82
2022/10/27 03:36:11;;;;;;;15.45;7.95;;;13.00;99.90;;;;;;5005993;28;20056;-82
2022/10/27 03:38:37;;;;;;;15.15;7.90;;;13.00;99.90;;;;;;4969286;28;20522;-83
2022/10/27 03:41:03;;;;;;;16.25;8.27;;;13.00;99.90;;;;;;4990537;28;20220;-83
2022/10/27 03:43:28;;;;;;;17.33;7.47;;;13.00;99.90;;;;;;4974178;28;20038;-83
2022/10/27 03:45:54;;;;;;;16.30;8.05;;;13.00;99.90;;;;;;4955383;28;20034;-83
2022/10/27 03:48:20;;;;;;;18.38;8.50;;;13.00;99.90;;;;;;5004195;28;20045;-83
2022/10/27 03:50:47;;;;;;;18.52;8.07;;;13.20;99.90;;;;;;5003792;28;20041;-83
2022/10/27 03:53:14;;;;;;;16.38;7.85;;;13.00;99.90;;;;;;5008342;28;20487;-83
2022/10/27 03:55:39;;;;;;;17.17;8.57;;;13.00;99.90;;;;;;5007307;28;20041;-83
2022/10/27 03:58:05;;;;;;;18.02;8.40;;;13.00;99.90;;;;;;4990097;28;20053;-83
2022/10/27 04:00:32;;;;;;;16.92;7.95;;;13.00;99.90;;;;;;4972773;28;20392;-83
2022/10/27 04:02:58;;;;;;;16.65;8.38;;;13.00;99.90;;;;;;4989025;28;20034;-83
2022/10/27 04:05:24;;;;;;;18.13;8.85;;;13.00;99.90;;;;;;5004680;28;20042;-83
2022/10/27 04:07:50;;;;;;;16.55;8.57;;;13.00;99.90;;;;;;4999480;28;20049;-83
2022/10/27 04:10:16;;;;;;;19.38;8.88;;;13.00;99.90;;;;;;4988802;28;20037;-83
2022/10/27 04:12:49;;;;;;;21.52;9.23;;;13.00;99.90;;;;;;4972040;28;20029;-83
2022/10/27 04:15:15;;;;;;;17.90;8.45;;;12.90;99.90;;;;;;4972572;28;20482;-83
2022/10/27 04:17:40;;;;;;;16.50;7.80;;;12.90;99.90;;;;;;5006997;28;20049;-83
2022/10/27 04:20:06;;;;;;;18.67;8.68;;;12.90;99.90;;;;;;4985895;28;20034;-83
2022/10/27 04:22:32;;;;;;;13.52;7.70;;;12.90;99.90;;;;;;4988547;28;20510;-83
2022/10/27 04:24:58;;;;;;;17.60;8.32;;;12.90;99.90;;;;;;4981127;28;20045;-83
2022/10/27 04:27:23;;;;;;;16.63;8.73;;;12.90;99.90;;;;;;4980063;28;20038;-83
2022/10/27 04:29:49;;;;;;;18.92;8.40;;;12.90;99.90;;;;;;4986933;28;20084;-83
2022/10/27 04:32:14;;;;;;;18.27;8.30;;;12.90;99.90;;;;;;4982096;28;20408;-83
2022/10/27 04:34:40;;;;;;;19.67;8.30;;;12.80;99.90;;;;;;4971378;28;20093;-83
2022/10/27 04:37:06;;;;;;;18.52;8.07;;;12.80;99.90;;;;;;4988265;28;20041;-83
2022/10/27 04:39:31;;;;;;;17.10;8.52;;;12.90;99.90;;;;;;4973763;28;20080;-83
2022/10/27 04:41:57;;;;;;;18.75;8.40;;;12.90;99.90;;;;;;4986215;28;20614;-83
2022/10/27 04:44:23;;;;;;;17.58;8.68;;;12.90;99.90;;;;;;4973006;28;20121;-83
2022/10/27 04:46:48;;;;;;;16.33;7.60;;;12.90;99.90;;;;;;4974797;28;20402;-83
2022/10/27 04:49:14;;;;;;;15.68;8.10;;;12.90;99.90;;;;;;4978048;28;20065;-83
2022/10/27 04:51:40;;;;;;;18.13;7.95;;;12.80;99.90;;;;;;4993575;28;20033;-83
2022/10/27 04:54:05;;;;;;;16.00;7.57;;;12.80;99.90;;;;;;4990320;28;20038;-83
2022/10/27 04:56:31;;;;;;;14.48;7.18;;;12.20;99.90;;;;;;4968532;28;20128;-83
2022/10/27 04:58:57;;;;;;;16.67;7.95;;;12.80;99.90;;;;;;5003207;28;20038;-82
2022/10/27 05:01:22;;;;;;;16.83;7.43;;;12.80;99.90;;;;;;4988206;28;20054;-83
2022/10/27 05:03:49;;;;;;;20.10;7.38;;;12.80;99.90;;;;;;4987934;28;20038;-83
2022/10/27 05:06:15;;;;;;;15.05;7.60;;;12.70;99.90;;;;;;4963773;28;20034;-83
2022/10/27 05:08:40;;;;;;;16.25;8.00;;;12.70;99.90;;;;;;4980636;28;20042;-84
2022/10/27 05:11:06;;;;;;;19.05;8.60;;;12.70;99.90;;;;;;4991590;28;20502;-83
2022/10/27 05:13:32;;;;;;;16.80;7.47;;;12.70;99.90;;;;;;4975375;28;20046;-83
2022/10/27 05:16:02;;;;;;;16.75;8.00;;;12.70;99.90;;;;;;4962653;28;20049;-83
2022/10/27 05:18:28;;;;;;;18.33;8.65;;;12.70;99.90;;;;;;5007002;28;20042;-83
2022/10/27 05:20:53;;;;;;;15.00;7.80;;;12.60;99.90;;;;;;4973798;28;20034;-83
2022/10/27 05:23:20;;;;;;;19.52;8.40;;;12.60;99.90;;;;;;4965840;28;20045;-83
2022/10/27 05:25:50;;;;;;;19.60;7.82;;;12.60;99.90;;;;;;4990558;28;20042;-83
2022/10/27 05:28:16;;;;;;;16.65;8.02;;;12.60;99.90;;;;;;4990411;28;20307;-83
2022/10/27 05:30:42;;;;;;;17.60;8.10;;;12.60;99.90;;;;;;4989220;28;20060;-83
2022/10/27 05:33:07;;;;;;;18.52;8.32;;;12.60;99.90;;;;;;4991795;28;20065;-83
2022/10/27 05:35:33;;;;;;;16.30;8.48;;;12.60;99.90;;;;;;4969403;28;20111;-83
2022/10/27 05:37:59;;;;;;;19.67;8.85;;;12.60;99.90;;;;;;4983162;28;20454;-83
2022/10/27 05:40:24;;;;;;;15.90;8.55;;;12.60;99.90;;;;;;4970332;28;20081;-83
2022/10/27 05:42:52;;;;;;;18.20;8.85;;;12.60;99.90;;;;;;4993795;28;20037;-83
2022/10/27 05:45:19;;;;;;;15.13;7.80;;;12.70;99.90;;;;;;4993523;28;20030;-83
2022/10/27 05:47:45;;;;;;;19.70;8.80;;;12.70;99.90;;;;;;4977095;28;20047;-83
2022/10/27 05:50:11;;;;;;;16.15;8.73;;;12.70;99.90;;;;;;4982556;28;20049;-83
2022/10/27 05:52:36;;;;;;;15.60;8.10;;;12.80;99.90;;;;;;4998451;28;20034;-83
2022/10/27 05:55:02;;;;;;;16.67;8.48;;;12.70;99.90;;;;;;4986790;28;20078;-83
2022/10/27 05:57:28;;;;;;;19.08;9.25;;;12.70;99.90;;;;;;4975559;28;20130;-83
2022/10/27 05:59:53;;;;;;;17.85;9.15;;;12.70;99.90;;;;;;4979300;28;20046;-83
2022/10/27 06:02:19;;;;;;;17.80;9.20;;;12.70;99.90;;;;;;5014579;28;20037;-83
2022/10/27 06:04:45;;;;;;;17.23;8.63;;;12.70;99.90;;;;;;5007878;28;20087;-83
2022/10/27 06:07:10;;;;;;;20.42;9.45;;;12.70;99.90;;;;;;5011184;28;20107;-83
2022/10/27 06:09:36;;;;;;;15.23;9.25;;;12.70;99.90;;;;;;4977033;28;20231;-83
2022/10/27 06:12:02;;;;;;;17.20;8.95;;;12.70;99.90;;;;;;4976938;28;20406;-83
2022/10/27 06:14:28;;;;;;;21.08;9.30;;;12.70;99.90;;;;;;5008767;28;20033;-83
2022/10/27 06:16:53;;;;;;;19.23;9.07;;;12.70;99.90;;;;;;4975643;28;20039;-83
2022/10/27 06:19:19;;;;;;;18.17;9.50;;;11.40;99.90;;;;;;4965961;28;20046;-83
2022/10/27 06:21:45;;;;;;;17.00;9.32;;;12.70;99.90;;;;;;4979295;28;20103;-83
2022/10/27 06:24:10;;;;;;;16.85;9.27;;;12.70;99.90;;;;;;5002182;28;20064;-83
2022/10/27 06:26:36;;;;;;;16.13;9.18;;;12.70;99.90;;;;;;4973073;28;20060;-85
2022/10/27 06:29:02;;;;;;;18.95;9.52;;;12.60;99.90;;;;;;4994049;28;20174;-83
2022/10/27 06:31:28;;;;;;;19.42;9.73;;;12.70;99.90;;;;;;5005781;28;20100;-85
2022/10/27 06:33:55;;;;;;;16.13;9.40;;;13.40;99.90;;;;;;4990855;28;20072;-84
2022/10/27 06:36:21;;;;;;;16.23;9.52;;;12.60;99.90;;;;;;4972410;28;20057;-84
2022/10/27 06:38:47;;;;;;;20.80;9.32;;;12.70;99.90;;;;;;4991709;28;20046;-83
2022/10/27 06:41:13;;;;;;;19.92;10.07;;;12.70;99.90;;;;;;4977220;28;20049;-84
2022/10/27 06:43:38;;;;;;;18.40;9.07;;;12.70;99.90;;;;;;4990614;28;20053;-83
2022/10/27 06:46:04;;;;;;;20.40;9.80;;;12.70;99.90;;;;;;4975384;28;20100;-84
2022/10/27 06:48:30;;;;;;;21.10;9.80;;;12.70;99.90;;;;;;4989891;28;20042;-84
2022/10/27 06:50:55;;;;;;;19.95;9.88;;;12.70;99.90;;;;;;4975727;28;20042;-84
2022/10/27 06:53:21;;;;;;;24.67;10.02;;;12.70;99.90;;;;;;4993069;28;20041;-84
2022/10/27 06:55:46;;;;;;;18.73;9.45;;;12.80;99.90;;;;;;4976135;28;20121;-84
2022/10/27 06:58:12;;;;;;;19.88;9.32;;;12.80;99.90;;;;;;4992311;28;20462;-84
2022/10/27 07:00:38;;;;;;;16.67;8.75;;;12.80;99.90;;;;;;4991740;28;20403;-84
2022/10/27 07:03:09;;;;;;;18.10;9.65;;;12.80;99.90;;;;;;4973100;28;20046;-84
2022/10/27 07:05:35;;;;;;;21.58;9.75;;;12.90;99.90;;;;;;4992097;28;20495;-84
2022/10/27 07:08:01;;;;;;;16.85;8.80;;;12.90;99.90;;;;;;4988787;28;20038;-84
2022/10/27 07:10:27;;;;;;;17.25;8.63;;;12.90;99.90;;;;;;4973672;28;20073;-84
2022/10/27 07:12:58;;;;;;;18.80;8.43;;;12.90;99.90;;;;;;4976290;28;20069;-83
2022/10/27 07:15:32;;;;;;;18.80;9.32;;;13.00;99.90;;;;;;4975725;28;20088;-84
2022/10/27 07:18:05;;;;;;;19.10;9.40;;;13.00;99.90;;;;;;4986339;28;20049;-84
2022/10/27 07:20:33;;;;;;;19.30;9.27;;;13.00;99.90;;;;;;4994923;28;20041;-84
2022/10/27 07:23:00;;;;;;;20.50;9.27;;;13.00;99.90;;;;;;5004802;28;20140;-83
2022/10/27 07:25:27;;;;;;;16.45;9.05;;;13.00;99.90;;;;;;4976567;28;20046;-85
2022/10/27 07:27:53;;;;;;;18.17;9.10;;;13.10;99.90;;;;;;4977855;28;20033;-83
2022/10/27 07:30:27;;;;;;;15.10;8.43;;;13.10;99.90;;;;;;4976098;28;20073;-84
2022/10/27 07:32:54;;;;;;;17.48;9.00;;;13.10;99.90;;;;;;5005974;28;20048;-84
2022/10/27 07:35:20;;;;;;;17.38;8.45;;;13.40;99.90;;;;;;4990680;28;20448;-85
2022/10/27 07:37:46;;;;;;;16.73;8.10;;;13.20;99.90;;;;;;4992727;28;20046;-85
2022/10/27 07:40:15;;;;;;;17.65;8.13;;;13.20;99.90;;;;;;5005927;28;20096;-84
2022/10/27 07:42:45;;;;;;;14.68;8.23;;;13.20;99.90;;;;;;5011461;28;20041;-85
2022/10/27 07:45:14;;;;;;;13.82;8.02;;;13.30;99.90;;;;;;5009469;28;20037;-84
2022/10/27 07:47:47;;;;;;;17.67;8.13;;;13.40;99.90;;;;;;5008833;28;20049;-84
2022/10/27 07:50:13;;;;;;;16.17;7.38;;;13.40;99.90;;;;;;5007061;28;20125;-84
2022/10/27 07:52:50;;;;;;;14.85;7.97;;;13.50;99.90;;;;;;4993418;28;20069;-85
2022/10/27 07:55:20;;;;;;;15.45;7.93;;;13.60;99.90;;;;;;4988869;28;20108;-83
2022/10/27 07:57:46;;;;;;;18.42;8.73;;;13.60;99.90;;;;;;4976481;28;20046;-83
2022/10/27 08:00:14;;;;;;;16.65;7.40;;;13.60;99.90;;;;;;4990206;28;20038;-85
2022/10/27 08:02:41;;;;;;;16.15;8.30;;;13.60;99.90;;;;;;4979203;28;20038;-83
2022/10/27 08:05:07;;;;;;;15.50;7.60;;;13.70;99.90;;;;;;4989969;28;20048;-84
2022/10/27 08:07:35;;;;;;;13.50;7.82;;;13.80;99.90;;;;;;4977545;28;20054;-85
2022/10/27 08:10:01;;;;;;;15.38;8.07;;;13.80;99.90;;;;;;4972305;28;20046;-84
2022/10/27 08:12:27;;;;;;;16.75;7.63;;;13.90;99.90;;;;;;4991571;28;20097;-87
2022/10/27 08:14:53;;;;;;;15.18;7.35;;;14.00;99.90;;;;;;4973894;28;20033;-85
2022/10/27 08:17:19;;;;;;;15.30;7.57;;;14.00;99.90;;;;;;4973431;28;20038;-85
2022/10/27 08:19:45;;;;;;;18.00;7.75;;;14.10;99.90;;;;;;4992735;28;20133;-86
2022/10/27 08:22:10;;;;;;;18.45;7.53;;;14.10;99.90;;;;;;4990063;28;20435;-84
2022/10/27 08:24:36;;;;;;;16.42;7.40;;;14.20;99.90;;;;;;4972711;28;20042;-85
2022/10/27 08:27:02;;;;;;;13.70;7.35;;;14.20;99.90;;;;;;4989957;28;20499;-85
2022/10/27 08:29:28;;;;;;;13.23;7.38;;;14.30;99.90;;;;;;4958659;28;20030;-83
2022/10/27 08:31:53;;;;;;;15.10;8.05;;;14.30;99.90;;;;;;4973122;28;20469;-84
2022/10/27 08:34:19;;;;;;;14.98;7.50;;;14.40;99.90;;;;;;4990553;28;20088;-84
2022/10/27 08:36:45;;;;;;;13.57;7.03;;;14.40;99.90;;;;;;4974116;28;20084;-83
2022/10/27 08:39:12;;;;;;;13.77;6.95;;;14.30;99.90;;;;;;4993320;28;20046;-82
2022/10/27 08:41:45;;;;;;;15.05;7.03;;;14.50;99.90;;;;;;4990642;28;20085;-84
2022/10/27 08:44:11;;;;;;;14.75;7.78;;;14.40;99.90;;;;;;4990490;28;20499;-83
2022/10/27 08:46:48;;;;;;;14.32;6.90;;;14.40;99.90;;;;;;4989650;28;20049;-84
2022/10/27 08:49:27;;;;;;;15.35;7.45;;;14.40;99.90;;;;;;5006030;28;20338;-84
2022/10/27 08:51:58;;;;;;;18.83;7.78;;;14.50;99.90;;;;;;5009216;28;20149;-83
2022/10/27 08:54:26;;;;;;;14.88;7.50;;;14.50;99.90;;;;;;4994053;28;20065;-83
2022/10/27 08:56:55;;;;;;;15.32;7.47;;;14.60;99.90;;;;;;4979652;28;20042;-82
2022/10/27 08:59:24;;;;;;;14.45;7.32;;;14.70;99.90;;;;;;4993197;28;20042;-85
2022/10/27 09:02:15;;;;;;;13.40;6.88;;;14.80;99.90;;;;;;5011680;28;20503;-83
2022/10/27 09:05:13;;;;;;;14.15;6.57;;;15.00;99.90;;;;;;5008222;28;20054;-83
2022/10/27 09:08:01;;;;;;;13.15;6.70;;;15.10;99.90;;;;;;4993010;28;20046;-83
2022/10/27 09:10:38;;;;;;;13.77;6.22;;;15.20;99.90;;;;;;4992647;28;20046;-83
2022/10/27 09:13:34;;;;;;;12.57;6.30;;;15.40;99.90;;;;;;4995035;28;20041;-82
2022/10/27 09:16:04;;;;;;;12.93;6.20;;;15.60;99.90;;;;;;5007999;28;20510;-82
2022/10/27 09:18:39;;;;;;;13.98;6.10;;;15.70;99.90;;;;;;5008465;28;20125;-83
2022/10/27 09:21:14;;;;;;;15.05;5.43;;;15.80;99.90;;;;;;4992712;28;20075;-82
2022/10/27 09:23:58;;;;;;;14.30;6.25;;;15.90;99.90;;;;;;4993366;28;20095;-83
2022/10/27 09:26:32;;;;;;;13.10;5.53;;;16.00;99.90;;;;;;4986597;28;20042;-84
2022/10/27 09:29:09;;;;;;;13.55;5.70;;;16.10;99.90;;;;;;4980933;28;20037;-85
2022/10/27 09:31:34;;;;;;;15.50;6.32;;;16.10;99.90;;;;;;4990748;28;20042;-84
2022/10/27 09:34:06;;;;;;;12.35;5.93;;;16.10;99.90;;;;;;5007886;28;20030;-83
2022/10/27 09:36:32;;;;;;;11.57;5.70;;;16.20;99.90;;;;;;4993711;28;20123;-83
2022/10/27 09:38:57;;;;;;;14.93;5.88;;;16.20;99.90;;;;;;4991680;28;20124;-83
2022/10/27 09:41:23;;;;;;;16.60;6.15;;;16.20;99.90;;;;;;4975406;28;20547;-83
2022/10/27 09:43:54;;;;;;;16.45;6.20;;;16.20;99.90;;;;;;4993189;28;20107;-83
2022/10/27 09:46:29;;;;;;;12.00;6.00;;;16.20;99.90;;;;;;4991318;28;20088;-82
2022/10/27 09:49:00;;;;;;;11.38;5.70;;;16.30;99.90;;;;;;4990614;28;20116;-83
2022/10/27 09:51:49;;;;;;;13.93;6.03;;;16.30;99.90;;;;;;5010147;28;20372;-82
2022/10/27 09:54:29;;;;;;;13.05;5.75;;;16.40;99.90;;;;;;5000971;28;20113;-82
2022/10/27 09:57:24;;;;;;;12.80;5.20;;;16.30;99.90;;;;;;4986619;28;20034;-82
2022/10/27 10:00:20;;;;;;;13.48;5.57;;;16.40;99.90;;;;;;5008964;28;20409;-82
2022/10/27 10:03:16;;;;;;;13.90;5.80;;;16.40;99.90;;;;;;4992961;28;20103;-82
2022/10/27 10:05:43;;;;;;;13.25;5.35;;;16.50;99.90;;;;;;5009892;28;20041;-82
2022/10/27 10:08:25;;;;;;;12.50;5.32;;;16.50;99.90;;;;;;4977302;28;20505;-82
2022/10/27 10:11:05;;;;;;;11.57;5.10;;;16.50;99.90;;;;;;4990382;28;20430;-83
2022/10/27 10:13:37;;;;;;;10.65;5.20;;;16.50;99.90;;;;;;4981896;28;20052;-82
2022/10/27 10:16:10;;;;;;;13.88;5.57;;;16.60;99.90;;;;;;4999815;28;20297;-83
2022/10/27 10:18:38;;;;;;;13.02;5.10;;;16.60;99.90;;;;;;5007694;28;20137;-83
2022/10/27 10:21:05;;;;;;;13.05;4.90;;;16.60;99.90;;;;;;5006329;28;20126;-82
2022/10/27 10:23:41;;;;;;;11.43;4.85;;;16.60;99.90;;;;;;5011599;28;20037;-82
2022/10/27 10:26:33;;;;;;;12.75;4.78;;;16.70;99.90;;;;;;4992577;28;20042;-82
2022/10/27 10:29:12;;;;;;;11.13;4.72;;;16.70;99.90;;;;;;5005694;28;20099;-82
2022/10/27 10:31:38;;;;;;;16.98;4.85;;;16.80;99.90;;;;;;4991472;28;20060;-83
2022/10/27 10:34:07;;;;;;;10.10;4.05;;;16.90;99.90;;;;;;4994651;28;20495;-83
2022/10/27 10:36:39;;;;;;;12.07;4.72;;;17.00;99.90;;;;;;5010055;28;20124;-83
2022/10/27 10:39:25;;;;;;;14.60;4.15;;;17.10;99.90;;;;;;4993601;28;20042;-84
2022/10/27 10:42:09;;;;;;;10.07;4.05;;;17.10;99.90;;;;;;5016227;28;20439;-83
2022/10/27 10:44:35;;;;;;;9.27;3.65;;;17.20;99.90;;;;;;5005281;28;20038;-82
2022/10/27 10:47:02;;;;;;;8.75;3.60;;;17.20;99.90;;;;;;4974155;28;20050;-83
2022/10/27 10:49:36;;;;;;;10.30;3.33;;;17.20;99.90;;;;;;5004795;28;20074;-83
2022/10/27 10:52:19;;;;;;;9.73;3.13;;;17.30;99.90;;;;;;4998400;28;20037;-83
2022/10/27 10:54:46;;;;;;;8.30;2.47;;;17.40;99.90;;;;;;4993135;28;20046;-84
2022/10/27 10:57:28;;;;;;;8.90;2.60;;;17.40;99.90;;;;;;5009514;28;20038;-84
2022/10/27 10:59:56;;;;;;;7.07;2.45;;;17.50;99.90;;;;;;4989585;28;20071;-83
2022/10/27 11:02:28;;;;;;;8.57;2.42;;;17.50;99.90;;;;;;4988904;28;20042;-82
2022/10/27 11:04:56;;;;;;;7.50;2.40;;;17.60;99.90;;;;;;4992397;28;20109;-83
2022/10/27 11:07:31;;;;;;;9.02;2.38;;;17.70;99.90;;;;;;4990423;28;20125;-82
2022/10/27 11:10:13;;;;;;;8.98;2.40;;;17.70;99.90;;;;;;5004705;28;20045;-83
2022/10/27 11:13:10;;;;;;;8.60;2.28;;;17.80;99.90;;;;;;4988309;28;20042;-83
2022/10/27 11:15:46;;;;;;;7.32;2.28;;;17.80;99.90;;;;;;5006009;28;20076;-82
2022/10/27 11:18:35;;;;;;;7.43;2.15;;;17.90;99.90;;;;;;5009496;28;20065;-83
2022/10/27 11:21:25;;;;;;;8.18;2.30;;;17.90;99.90;;;;;;5008265;28;20060;-83
2022/10/27 11:24:14;;;;;;;6.70;2.00;;;18.00;99.90;;;;;;4985638;28;20503;-83
2022/10/27 11:26:55;;;;;;;8.40;2.08;;;18.10;99.90;;;;;;4981252;28;20046;-84
2022/10/27 11:29:26;;;;;;;8.25;2.60;;;18.10;99.90;;;;;;5002472;28;20523;-84
2022/10/27 11:32:13;;;;;;;8.98;2.72;;;18.20;99.90;;;;;;5000797;28;20057;-85
2022/10/27 11:35:02;;;;;;;11.77;2.90;;;18.30;99.90;;;;;;4999422;28;20057;-85
2022/10/27 11:37:56;;;;;;;8.48;2.55;;;18.60;99.90;;;;;;5026446;28;20140;-83
2022/10/27 11:40:26;;;;;;;;;;;18.50;99.90;;;;;;4986526;28;20048;-83
2022/10/27 11:43:02;;;;;;;7.65;2.50;;;18.50;99.90;;;;;;4985745;28;20386;-84
2022/10/27 11:45:40;;;;;;;7.75;2.70;;;18.50;99.90;;;;;;4986637;28;20461;-83
2022/10/27 11:48:31;;;;;;;8.68;2.58;;;18.50;99.90;;;;;;4987914;28;20045;-83
2022/10/27 11:51:23;;;;;;;10.23;2.63;;;18.50;99.90;;;;;;4994845;28;20037;-83
2022/10/27 11:53:52;;;;;;;8.55;2.90;;;18.50;99.90;;;;;;4999696;28;20365;-84
2022/10/27 11:56:38;;;;;;;10.30;2.63;;;18.50;99.90;;;;;;4987373;28;20096;-84
2022/10/27 11:59:12;;;;;;;8.98;2.75;;;18.50;99.90;;;;;;4996991;28;20136;-83
2022/10/27 12:01:46;;;;;;;9.25;2.88;;;18.50;99.90;;;;;;5007368;28;20048;-82
2022/10/27 12:04:17;;;;;;;8.35;2.70;;;18.60;99.90;;;;;;4988822;28;20410;-82
2022/10/27 12:06:55;;;;;;;7.88;2.70;;;18.70;99.90;;;;;;4988617;28;20045;-83
2022/10/27 12:09:55;;;;;;;8.75;2.78;;;18.80;99.90;;;;;;5004857;28;20042;-83
2022/10/27 12:12:35;;;;;;;9.52;2.65;;;18.90;99.90;;;;;;4995520;28;20568;-83
2022/10/27 12:15:43;;;;;;;8.77;2.65;;;18.90;99.90;;;;;;4991978;28;20049;-82
2022/10/27 12:18:35;;;;;;;7.80;2.50;;;18.90;99.90;;;;;;4984670;28;20125;-83
2022/10/27 12:21:30;;;;;;;8.98;2.30;;;18.90;99.90;;;;;;4990756;28;20046;-83
2022/10/27 12:23:59;;;;;;;11.02;2.42;;;18.90;99.90;;;;;;4992995;28;20041;-83
2022/10/27 12:26:51;;;;;;;7.70;2.47;;;19.00;99.90;;;;;;4990205;28;20053;-85
2022/10/27 12:29:18;;;;;;;8.40;2.10;;;19.10;99.90;;;;;;4983661;28;20128;-83
2022/10/27 12:31:56;;;;;;;10.95;2.28;;;19.20;99.90;;;;;;4974206;28;20091;-83
2022/10/27 12:34:32;;;;;;;8.85;2.63;;;19.30;99.90;;;;;;4990089;28;20042;-84
2022/10/27 12:37:33;;;;;;;8.82;2.40;;;19.30;99.90;;;;;;4991734;28;20097;-84
2022/10/27 12:40:25;;;;;;;7.93;2.40;;;19.30;99.90;;;;;;4985142;28;20069;-83
2022/10/27 12:42:53;;;;;;;9.20;2.30;;;19.20;99.90;;;;;;4993727;28;20046;-83
2022/10/27 12:45:28;;;;;;;9.27;2.50;;;19.20;99.90;;;;;;4988852;28;20110;-84
2022/10/27 12:48:35;;;;;;;7.35;2.30;;;19.00;99.90;;;;;;4988063;28;20042;-84
2022/10/27 12:51:09;;;;;;;6.97;2.28;;;18.90;99.90;;;;;;4968210;28;20120;-83
2022/10/27 12:54:04;;;;;;;8.63;2.22;;;18.80;99.90;;;;;;4990812;28;20121;-85
2022/10/27 12:56:45;;;;;;;7.43;2.10;;;18.80;99.90;;;;;;4990344;28;20053;-83
2022/10/27 12:59:16;;;;;;;8.68;2.30;;;18.80;99.90;;;;;;4988007;28;20440;-83
2022/10/27 13:01:57;;;;;;;8.05;2.13;;;18.80;99.90;;;;;;4999554;28;20566;-83